createdAt,value
2023-02-19T00:01:24.216Z,98507.97
2023-02-19T00:03:53.158Z,98510.03
2023-02-19T00:06:21.215Z,98501.16
2023-02-19T00:08:47.992Z,98510.56
2023-02-19T00:11:20.120Z,98514.84
2023-02-19T00:13:48.362Z,98505.84
2023-02-19T00:16:17.529Z,98513.59
2023-02-19T00:18:43.951Z,98517.91
2023-02-19T00:21:10.721Z,98511.97
2023-02-19T00:23:37.313Z,98505.41
2023-02-19T00:26:21.947Z,98521.19
2023-02-19T00:28:49.511Z,98510.75
2023-02-19T00:31:31.485Z,98507.63
2023-02-19T00:34:03.930Z,98508.69
2023-02-19T00:36:31.548Z,98506.25
2023-02-19T00:38:58.162Z,98519.16
2023-02-19T00:41:25.099Z,98508.94
2023-02-19T00:43:58.885Z,98509.13
2023-02-19T00:46:37.142Z,98513.03
2023-02-19T00:49:05.455Z,98510.56
2023-02-19T00:51:34.824Z,98504.00
2023-02-19T00:54:01.557Z,98504.00
2023-02-19T00:56:28.061Z,98497.63
2023-02-19T00:58:54.933Z,98493.28
2023-02-19T01:01:21.629Z,98489.59
2023-02-19T01:03:48.755Z,98491.44
2023-02-19T01:06:17.435Z,98475.03
2023-02-19T01:08:44.718Z,98460.72
2023-02-19T01:11:12.152Z,98462.91
2023-02-19T01:13:39.522Z,98459.50
2023-02-19T01:16:21.554Z,98464.19
2023-02-19T01:18:48.773Z,98464.56
2023-02-19T01:21:17.975Z,98455.34
2023-02-19T01:23:44.316Z,98457.59
2023-02-19T01:26:16.920Z,98445.09
2023-02-19T01:28:43.917Z,98446.53
2023-02-19T01:31:14.580Z,98441.41
2023-02-19T01:33:44.829Z,98451.88
2023-02-19T01:36:11.241Z,98451.25
2023-02-19T01:38:37.515Z,98434.13
2023-02-19T01:41:06.809Z,98428.38
2023-02-19T01:43:35.408Z,98428.78
2023-02-19T01:46:02.241Z,98415.03
2023-02-19T01:48:36.733Z,98413.22
2023-02-19T01:51:09.138Z,98426.13
2023-02-19T01:53:44.849Z,98409.31
2023-02-19T01:56:12.979Z,98398.28
2023-02-19T01:58:40.246Z,98393.56
2023-02-19T02:01:08.524Z,98381.94
2023-02-19T02:03:40.295Z,98387.22
2023-02-19T02:06:18.793Z,98406.22
2023-02-19T02:08:45.316Z,98404.59
2023-02-19T02:11:12.009Z,98407.28
2023-02-19T02:13:40.128Z,98406.28
2023-02-19T02:16:17.876Z,98406.91
2023-02-19T02:18:56.518Z,98405.44
2023-02-19T02:21:41.246Z,98407.72
2023-02-19T02:24:13.264Z,98404.41
2023-02-19T02:26:58.343Z,98393.97
2023-02-19T02:29:38.136Z,98389.50
2023-02-19T02:32:13.119Z,98383.78
2023-02-19T02:34:51.344Z,98385.41
2023-02-19T02:37:17.765Z,98388.44
2023-02-19T02:39:46.771Z,98382.34
2023-02-19T02:42:13.715Z,98384.41
2023-02-19T02:44:41.044Z,98371.47
2023-02-19T02:47:09.954Z,98372.94
2023-02-19T02:49:36.315Z,98372.75
2023-02-19T02:52:02.745Z,98378.63
2023-02-19T02:54:33.648Z,98384.19
2023-02-19T02:57:01.896Z,98383.59
2023-02-19T02:59:33.880Z,98370.84
2023-02-19T03:02:11.164Z,98362.50
2023-02-19T03:04:45.112Z,98363.94
2023-02-19T03:07:12.460Z,98355.13
2023-02-19T03:09:42.664Z,98352.28
2023-02-19T03:12:14.771Z,98359.00
2023-02-19T03:14:46.400Z,98348.34
2023-02-19T03:17:21.879Z,98341.63
2023-02-19T03:19:55.397Z,98349.22
2023-02-19T03:22:27.447Z,98341.25
2023-02-19T03:25:25.928Z,98342.06
2023-02-19T03:27:54.127Z,98348.41
2023-02-19T03:30:25.305Z,98344.91
2023-02-19T03:33:20.640Z,98345.34
2023-02-19T03:35:53.735Z,98341.03
2023-02-19T03:38:28.854Z,98340.56
2023-02-19T03:41:15.040Z,98342.66
2023-02-19T03:44:02.941Z,98340.84
2023-02-19T03:46:29.247Z,98339.38
2023-02-19T03:49:24.118Z,98332.03
2023-02-19T03:51:55.824Z,98336.53
2023-02-19T03:54:42.305Z,98340.63
2023-02-19T03:57:18.993Z,98337.97
2023-02-19T04:00:03.498Z,98348.81
2023-02-19T04:02:37.226Z,98333.88
2023-02-19T04:05:14.092Z,98341.03
2023-02-19T04:07:45.774Z,98336.13
2023-02-19T04:10:14.089Z,98344.72
2023-02-19T04:12:44.725Z,98343.06
2023-02-19T04:15:16.034Z,98342.47
2023-02-19T04:17:48.257Z,98349.22
2023-02-19T04:20:17.093Z,98363.34
2023-02-19T04:22:43.857Z,98352.47
2023-02-19T04:25:10.324Z,98366.41
2023-02-19T04:27:40.388Z,98369.47
2023-02-19T04:30:08.718Z,98355.97
2023-02-19T04:32:35.027Z,98362.50
2023-02-19T04:35:01.353Z,98360.47
2023-02-19T04:37:27.673Z,98364.75
2023-02-19T04:39:53.964Z,98361.28
2023-02-19T04:42:20.390Z,98364.50
2023-02-19T04:44:46.730Z,98359.03
2023-02-19T04:47:13.123Z,98347.78
2023-02-19T04:49:39.432Z,98354.53
2023-02-19T04:52:05.730Z,98358.19
2023-02-19T04:54:32.031Z,98358.81
2023-02-19T04:56:58.363Z,98367.00
2023-02-19T04:59:24.680Z,98363.28
2023-02-19T05:01:51.048Z,98372.13
2023-02-19T05:04:17.427Z,98370.06
2023-02-19T05:06:43.755Z,98366.16
2023-02-19T05:09:10.109Z,98375.41
2023-02-19T05:11:36.479Z,98375.19
2023-02-19T05:14:02.848Z,98373.56
2023-02-19T05:16:29.178Z,98364.16
2023-02-19T05:18:55.490Z,98370.50
2023-02-19T05:21:21.854Z,98362.47
2023-02-19T05:23:48.159Z,98357.34
2023-02-19T05:26:17.506Z,98367.81
2023-02-19T05:28:48.730Z,98362.72
2023-02-19T05:31:15.673Z,98363.50
2023-02-19T05:33:42.349Z,98357.81
2023-02-19T05:36:11.452Z,98358.63
2023-02-19T05:38:38.553Z,98360.47
2023-02-19T05:41:13.648Z,98360.06
2023-02-19T05:43:41.692Z,98351.88
2023-02-19T05:46:09.482Z,98358.63
2023-02-19T05:48:35.970Z,98369.47
2023-02-19T05:51:04.143Z,98371.94
2023-02-19T05:53:30.822Z,98373.56
2023-02-19T05:55:57.240Z,98370.69
2023-02-19T05:58:23.788Z,98371.31
2023-02-19T06:00:50.237Z,98361.06
2023-02-19T06:03:16.647Z,98372.13
2023-02-19T06:05:42.941Z,98380.72
2023-02-19T06:08:12.342Z,98381.97
2023-02-19T06:10:39.021Z,98378.25
2023-02-19T06:13:05.588Z,98388.66
2023-02-19T06:15:31.873Z,98395.25
2023-02-19T06:17:58.229Z,98385.41
2023-02-19T06:20:26.274Z,98401.34
2023-02-19T06:22:52.676Z,98409.97
2023-02-19T06:25:20.140Z,98408.53
2023-02-19T06:27:46.450Z,98417.13
2023-02-19T06:30:13.037Z,98409.31
2023-02-19T06:32:39.399Z,98410.75
2023-02-19T06:35:05.944Z,98409.53
2023-02-19T06:37:32.341Z,98411.00
2023-02-19T06:39:58.632Z,98416.53
2023-02-19T06:42:24.933Z,98423.09
2023-02-19T06:44:51.267Z,98417.34
2023-02-19T06:47:17.599Z,98416.13
2023-02-19T06:49:43.989Z,98417.75
2023-02-19T06:52:10.536Z,98433.72
2023-02-19T06:54:36.833Z,98440.66
2023-02-19T06:57:03.218Z,98444.78
2023-02-19T06:59:29.505Z,98446.41
2023-02-19T07:01:55.809Z,98463.22
2023-02-19T07:04:22.117Z,98458.34
2023-02-19T07:06:48.473Z,98465.06
2023-02-19T07:09:14.930Z,98462.41
2023-02-19T07:11:41.237Z,98462.03
2023-02-19T07:14:08.768Z,98463.06
2023-02-19T07:16:35.580Z,98466.31
2023-02-19T07:19:02.657Z,98474.06
2023-02-19T07:21:29.852Z,98473.69
2023-02-19T07:23:57.000Z,98479.84
2023-02-19T07:26:24.400Z,98491.28
2023-02-19T07:28:51.289Z,98485.78
2023-02-19T07:31:19.297Z,98494.78
2023-02-19T07:33:46.539Z,98495.19
2023-02-19T07:36:14.082Z,98501.53
2023-02-19T07:38:40.328Z,98496.16
2023-02-19T07:41:07.018Z,98491.88
2023-02-19T07:43:35.964Z,98494.31
2023-02-19T07:46:06.849Z,98502.78
2023-02-19T07:48:35.532Z,98498.69
2023-02-19T07:51:04.214Z,98502.59
2023-02-19T07:53:31.325Z,98507.28
2023-02-19T07:56:02.605Z,98501.41
2023-02-19T07:58:29.662Z,98507.16
2023-02-19T08:00:56.088Z,98506.53
2023-02-19T08:03:22.491Z,98510.22
2023-02-19T08:05:49.338Z,98512.28
2023-02-19T08:08:16.687Z,98502.84
2023-02-19T08:10:43.122Z,98508.81
2023-02-19T08:13:13.211Z,98507.00
2023-02-19T08:15:39.565Z,98504.09
2023-02-19T08:18:05.864Z,98501.69
2023-02-19T08:20:32.186Z,98502.09
2023-02-19T08:22:58.472Z,98504.38
2023-02-19T08:25:24.756Z,98513.41
2023-02-19T08:27:51.148Z,98513.59
2023-02-19T08:30:17.805Z,98504.38
2023-02-19T08:32:44.126Z,98521.19
2023-02-19T08:35:10.421Z,98524.47
2023-02-19T08:37:36.743Z,98529.78
2023-02-19T08:40:03.379Z,98537.16
2023-02-19T08:42:29.773Z,98544.56
2023-02-19T08:44:56.079Z,98544.75
2023-02-19T08:47:22.412Z,98559.34
2023-02-19T08:49:48.744Z,98552.13
2023-02-19T08:52:15.024Z,98565.47
2023-02-19T08:54:41.323Z,98562.19
2023-02-19T08:57:07.822Z,98565.47
2023-02-19T08:59:34.188Z,98573.88
2023-02-19T09:02:00.474Z,98569.16
2023-02-19T09:04:27.069Z,98571.63
2023-02-19T09:06:53.506Z,98573.47
2023-02-19T09:09:19.913Z,98566.28
2023-02-19T09:11:49.180Z,98581.09
2023-02-19T09:14:15.630Z,98582.94
2023-02-19T09:16:41.923Z,98580.69
2023-02-19T09:19:08.236Z,98586.22
2023-02-19T09:21:34.531Z,98586.88
2023-02-19T09:24:00.833Z,98597.13
2023-02-19T09:26:27.133Z,98589.31
2023-02-19T09:28:53.416Z,98596.91
2023-02-19T09:31:19.869Z,98605.72
2023-02-19T09:33:48.235Z,98608.38
2023-02-19T09:36:16.334Z,98610.63
2023-02-19T09:38:43.088Z,98614.75
2023-02-19T09:41:22.346Z,98604.28
2023-02-19T09:43:48.816Z,98613.72
2023-02-19T09:46:31.790Z,98613.94
2023-02-19T09:49:14.303Z,98620.91
2023-02-19T09:51:45.398Z,98626.84
2023-02-19T09:54:20.859Z,98617.00
2023-02-19T09:56:47.450Z,98625.41
2023-02-19T09:59:21.936Z,98617.00
2023-02-19T10:01:51.994Z,98613.53
2023-02-19T10:04:18.322Z,98616.59
2023-02-19T10:06:44.745Z,98610.44
2023-02-19T10:09:19.481Z,98614.56
2023-02-19T10:11:48.423Z,98608.63
2023-02-19T10:14:21.493Z,98612.31
2023-02-19T10:16:49.972Z,98617.44
2023-02-19T10:19:16.934Z,98616.00
2023-02-19T10:21:43.986Z,98636.09
2023-02-19T10:24:20.563Z,98618.25
2023-02-19T10:26:47.528Z,98631.38
2023-02-19T10:29:13.831Z,98638.34
2023-02-19T10:31:40.297Z,98639.59
2023-02-19T10:34:21.164Z,98638.97
2023-02-19T10:36:50.386Z,98646.97
2023-02-19T10:39:22.944Z,98638.16
2023-02-19T10:41:51.141Z,98633.81
2023-02-19T10:44:28.830Z,98639.38
2023-02-19T10:46:58.375Z,98642.66
2023-02-19T10:49:41.026Z,98652.50
2023-02-19T10:52:18.000Z,98653.09
2023-02-19T10:54:45.491Z,98649.41
2023-02-19T10:57:31.980Z,98650.84
2023-02-19T11:00:14.830Z,98646.13
2023-02-19T11:02:43.022Z,98649.19
2023-02-19T11:05:09.271Z,98648.16
2023-02-19T11:07:37.277Z,98649.41
2023-02-19T11:10:05.300Z,98651.88
2023-02-19T11:12:33.797Z,98667.47
2023-02-19T11:15:21.624Z,98660.28
2023-02-19T11:18:14.521Z,98665.44
2023-02-19T11:20:51.272Z,98662.97
2023-02-19T11:23:20.640Z,98668.09
2023-02-19T11:25:49.481Z,98674.47
2023-02-19T11:28:32.984Z,98677.56
2023-02-19T11:31:19.236Z,98697.25
2023-02-19T11:33:58.683Z,98684.50
2023-02-19T11:36:37.969Z,98690.63
2023-02-19T11:39:16.562Z,98697.53
2023-02-19T11:42:08.886Z,98695.06
2023-02-19T11:44:52.374Z,98692.81
2023-02-19T11:47:57.256Z,98692.41
2023-02-19T11:50:41.698Z,98706.72
2023-02-19T11:53:31.660Z,98695.00
2023-02-19T11:56:16.398Z,98688.28
2023-02-19T11:59:01.877Z,98689.13
2023-02-19T12:02:05.965Z,98708.59
2023-02-19T12:05:02.880Z,98701.91
2023-02-19T12:08:07.679Z,98703.75
2023-02-19T12:10:51.629Z,98704.50
2023-02-19T12:13:30.559Z,98708.28
2023-02-19T12:16:29.805Z,98716.69
2023-02-19T12:19:11.686Z,98721.00
2023-02-19T12:21:56.413Z,98707.25
2023-02-19T12:25:01.088Z,98706.22
2023-02-19T12:27:42.522Z,98707.50
2023-02-19T12:30:22.828Z,98703.00
2023-02-19T12:33:07.767Z,98699.09
2023-02-19T12:35:42.476Z,98688.84
2023-02-19T12:38:18.406Z,98688.44
2023-02-19T12:41:01.462Z,98684.13
2023-02-19T12:43:30.926Z,98677.75
2023-02-19T12:46:04.662Z,98687.38
2023-02-19T12:48:36.884Z,98674.81
2023-02-19T12:51:10.837Z,98675.81
2023-02-19T12:53:56.201Z,98672.72
2023-02-19T12:56:42.447Z,98683.09
2023-02-19T12:59:16.430Z,98685.56
2023-02-19T13:01:53.000Z,98665.00
2023-02-19T13:04:26.072Z,98681.66
2023-02-19T13:07:10.772Z,98680.38
2023-02-19T13:09:45.506Z,98670.94
2023-02-19T13:12:17.839Z,98690.09
2023-02-19T13:14:48.459Z,98681.09
2023-02-19T13:17:35.599Z,98685.66
2023-02-19T13:20:15.200Z,98688.38
2023-02-19T13:22:46.293Z,98679.34
2023-02-19T13:25:14.685Z,98692.50
2023-02-19T13:28:02.134Z,98691.91
2023-02-19T13:30:42.996Z,98706.09
2023-02-19T13:33:30.501Z,98719.03
2023-02-19T13:36:26.818Z,98722.47
2023-02-19T13:38:54.560Z,98719.59
2023-02-19T13:41:29.656Z,98710.78
2023-02-19T13:44:00.642Z,98705.25
2023-02-19T13:46:41.721Z,98698.88
2023-02-19T13:49:29.586Z,98705.66
2023-02-19T13:51:57.954Z,98703.81
2023-02-19T13:54:25.692Z,98702.41
2023-02-19T13:57:22.834Z,98722.06
2023-02-19T13:59:57.730Z,98707.50
2023-02-19T14:02:28.452Z,98720.47
2023-02-19T14:04:56.128Z,98719.44
2023-02-19T14:07:38.458Z,98716.16
2023-02-19T14:10:11.848Z,98734.41
2023-02-19T14:12:38.154Z,98740.38
2023-02-19T14:15:42.066Z,98738.91
2023-02-19T14:18:28.568Z,98748.91
2023-02-19T14:21:07.345Z,98754.03
2023-02-19T14:23:33.825Z,98747.78
2023-02-19T14:26:00.973Z,98751.06
2023-02-19T14:28:40.409Z,98764.78
2023-02-19T14:31:26.185Z,98752.88
2023-02-19T14:33:55.809Z,98759.00
2023-02-19T14:36:53.564Z,98755.31
2023-02-19T14:39:24.467Z,98762.63
2023-02-19T14:41:54.616Z,98772.03
2023-02-19T14:44:28.752Z,98766.50
2023-02-19T14:47:00.445Z,98772.22
2023-02-19T14:49:38.931Z,98783.81
2023-02-19T14:52:13.952Z,98781.53
2023-02-19T14:55:07.836Z,98792.97
2023-02-19T14:57:39.749Z,98797.72
2023-02-19T15:00:25.031Z,98800.41
2023-02-19T15:02:52.862Z,98809.41
2023-02-19T15:05:25.020Z,98793.84
2023-02-19T15:07:54.925Z,98795.38
2023-02-19T15:10:21.985Z,98797.22
2023-02-19T15:13:09.459Z,98791.75
2023-02-19T15:15:39.311Z,98795.00
2023-02-19T15:18:06.485Z,98785.81
2023-02-19T15:20:35.630Z,98790.72
2023-02-19T15:23:06.147Z,98794.25
2023-02-19T15:25:42.934Z,98786.25
2023-02-19T15:28:20.845Z,98788.34
2023-02-19T15:30:47.309Z,98782.81
2023-02-19T15:33:18.627Z,98780.97
2023-02-19T15:35:51.241Z,98791.97
2023-02-19T15:38:18.255Z,98787.00
2023-02-19T15:40:46.474Z,98787.63
2023-02-19T15:43:32.426Z,98781.03
2023-02-19T15:46:14.221Z,98788.72
2023-02-19T15:48:51.051Z,98791.34
2023-02-19T15:51:25.332Z,98794.22
2023-02-19T15:53:58.396Z,98779.97
2023-02-19T15:56:30.014Z,98787.34
2023-02-19T15:59:28.900Z,98785.88
2023-02-19T16:01:55.583Z,98787.69
2023-02-19T16:04:22.173Z,98798.78
2023-02-19T16:07:00.755Z,98807.16
2023-02-19T16:09:37.807Z,98815.81
2023-02-19T16:12:20.839Z,98810.66
2023-02-19T16:14:47.431Z,98811.56
2023-02-19T16:17:17.860Z,98833.88
2023-02-19T16:19:53.488Z,98835.88
2023-02-19T16:22:23.566Z,98837.13
2023-02-19T16:24:55.967Z,98843.28
2023-02-19T16:27:40.379Z,98838.09
2023-02-19T16:30:10.495Z,98833.63
2023-02-19T16:32:36.790Z,98840.69
2023-02-19T16:37:38.599Z,98829.78
2023-02-19T16:40:07.708Z,98845.19
2023-02-19T16:43:13.966Z,98833.94
2023-02-19T16:45:44.786Z,98832.38
2023-02-19T16:48:12.460Z,98847.53
2023-02-19T16:50:40.106Z,98848.09
2023-02-19T16:53:06.450Z,98838.22
2023-02-19T16:55:32.846Z,98850.31
2023-02-19T16:57:59.177Z,98849.09
2023-02-19T17:00:28.743Z,98852.03
2023-02-19T17:02:59.347Z,98858.28
2023-02-19T17:05:27.364Z,98871.59
2023-02-19T17:07:53.751Z,98864.25
2023-02-19T17:10:23.655Z,98874.50
2023-02-19T17:12:54.050Z,98881.84
2023-02-19T17:15:21.478Z,98887.38
2023-02-19T17:17:47.848Z,98891.69
2023-02-19T17:20:23.106Z,98897.44
2023-02-19T17:22:50.083Z,98901.94
2023-02-19T17:25:16.439Z,98899.03
2023-02-19T17:27:42.761Z,98899.03
2023-02-19T17:30:25.173Z,98898.66
2023-02-19T17:32:51.685Z,98906.56
2023-02-19T17:35:17.987Z,98916.28
2023-02-19T17:37:44.555Z,98916.84
2023-02-19T17:40:31.797Z,98912.72
2023-02-19T17:42:58.909Z,98914.75
2023-02-19T17:45:25.310Z,98914.88
2023-02-19T17:47:51.683Z,98923.41
2023-02-19T17:50:21.191Z,98921.34
2023-02-19T17:52:47.581Z,98935.06
2023-02-19T17:55:15.958Z,98941.50
2023-02-19T17:57:42.298Z,98946.72
2023-02-19T18:00:09.201Z,98955.25
2023-02-19T18:02:35.553Z,98959.19
2023-02-19T18:05:01.867Z,98967.34
2023-02-19T18:07:28.200Z,98966.25
2023-02-19T18:09:54.584Z,98972.94
2023-02-19T18:12:21.028Z,98981.72
2023-02-19T18:14:47.399Z,98975.59
2023-02-19T18:17:14.960Z,98977.25
2023-02-19T18:19:42.916Z,98979.63
2023-02-19T18:22:09.209Z,98983.28
2023-02-19T18:24:35.562Z,98985.31
2023-02-19T18:27:01.910Z,98988.59
2023-02-19T18:29:28.209Z,98993.53
2023-02-19T18:31:54.571Z,98989.69
2023-02-19T18:34:21.225Z,98993.47
2023-02-19T18:36:48.914Z,98980.44
2023-02-19T18:39:15.847Z,98982.72
2023-02-19T18:41:47.199Z,98991.91
2023-02-19T18:44:16.531Z,98989.06
2023-02-19T18:46:42.843Z,98992.53
2023-02-19T18:49:09.138Z,98994.88
2023-02-19T18:51:35.496Z,98998.47
2023-02-19T18:54:01.791Z,99001.31
2023-02-19T18:56:28.123Z,99006.25
2023-02-19T18:58:54.416Z,99004.69
2023-02-19T19:01:21.067Z,99001.22
2023-02-19T19:03:47.482Z,98996.16
2023-02-19T19:06:13.906Z,98998.44
2023-02-19T19:08:40.338Z,98997.72
2023-02-19T19:11:06.666Z,99011.38
2023-02-19T19:13:32.955Z,99002.03
2023-02-19T19:15:59.258Z,99008.44
2023-02-19T19:18:25.605Z,99022.56
2023-02-19T19:20:51.915Z,99009.38
2023-02-19T19:23:18.226Z,99019.63
2023-02-19T19:25:44.579Z,99031.09
2023-02-19T19:28:10.866Z,99021.66
2023-02-19T19:30:37.306Z,99026.78
2023-02-19T19:33:03.745Z,99022.47
2023-02-19T19:35:30.030Z,99033.13
2023-02-19T19:37:56.423Z,99030.00
2023-02-19T19:40:22.718Z,99036.97
2023-02-19T19:42:50.939Z,99030.38
2023-02-19T19:45:17.367Z,99033.38
2023-02-19T19:47:43.696Z,99033.66
2023-02-19T19:50:10.269Z,99032.00
2023-02-19T19:52:36.591Z,99044.31
2023-02-19T19:55:02.926Z,99044.19
2023-02-19T19:57:29.279Z,99037.53
2023-02-19T19:59:55.574Z,99052.38
2023-02-19T20:02:21.921Z,99047.63
2023-02-19T20:04:48.247Z,99044.88
2023-02-19T20:07:14.896Z,99045.25
2023-02-19T20:09:41.579Z,99047.72
2023-02-19T20:12:08.191Z,99054.22
2023-02-19T20:14:34.557Z,99051.75
2023-02-19T20:17:01.776Z,99053.03
2023-02-19T20:19:28.072Z,99057.06
2023-02-19T20:21:54.464Z,99057.88
2023-02-19T20:24:25.837Z,99057.06
2023-02-19T20:27:00.716Z,99057.69
2023-02-19T20:29:28.306Z,99057.88
2023-02-19T20:31:55.289Z,99062.00
2023-02-19T20:34:22.828Z,99069.00
2023-02-19T20:36:49.655Z,99065.66
2023-02-19T20:39:17.548Z,99067.16
2023-02-19T20:41:48.780Z,99063.75
2023-02-19T20:44:15.832Z,99064.59
2023-02-19T20:46:43.846Z,99063.19
2023-02-19T20:49:10.412Z,99070.63
2023-02-19T20:51:58.215Z,99071.44
2023-02-19T20:54:26.774Z,99077.22
2023-02-19T20:56:55.043Z,99078.69
2023-02-19T20:59:23.748Z,99084.91
2023-02-19T21:01:50.426Z,99081.00
2023-02-19T21:04:17.127Z,99070.56
2023-02-19T21:06:43.746Z,99074.22
2023-02-19T21:09:10.256Z,99073.84
2023-02-19T21:11:36.558Z,99084.28
2023-02-19T21:14:03.096Z,99079.16
2023-02-19T21:16:31.045Z,99074.03
2023-02-19T21:18:58.768Z,99073.22
2023-02-19T21:21:25.706Z,99067.25
2023-02-19T21:23:53.593Z,99080.88
2023-02-19T21:26:20.532Z,99080.06
2023-02-19T21:28:46.835Z,99075.75
2023-02-19T21:31:13.557Z,99076.75
2023-02-19T21:33:40.028Z,99076.59
2023-02-19T21:36:06.715Z,99072.75
2023-02-19T21:38:33.073Z,99074.38
2023-02-19T21:40:59.355Z,99078.53
2023-02-19T21:43:25.721Z,99080.53
2023-02-19T21:45:52.067Z,99079.16
2023-02-19T21:48:18.425Z,99081.78
2023-02-19T21:50:44.792Z,99072.31
2023-02-19T21:53:12.567Z,99072.84
2023-02-19T21:55:41.122Z,99069.53
2023-02-19T21:58:09.220Z,99073.38
2023-02-19T22:00:35.676Z,99070.66
2023-02-19T22:03:02.162Z,99082.41
2023-02-19T22:05:28.509Z,99088.38
2023-02-19T22:07:54.876Z,99092.41
2023-02-19T22:10:21.434Z,99093.41
2023-02-19T22:12:47.774Z,99087.91
2023-02-19T22:15:14.156Z,99084.63
2023-02-19T22:17:40.536Z,99090.56
2023-02-19T22:20:07.370Z,99095.34
2023-02-19T22:22:33.708Z,99099.00
2023-02-19T22:25:00.025Z,99102.31
2023-02-19T22:27:28.645Z,99102.41
2023-02-19T22:29:54.972Z,99105.44
2023-02-19T22:32:21.372Z,99107.63
2023-02-19T22:34:47.865Z,99104.69
2023-02-19T22:37:14.230Z,99106.53
2023-02-19T22:39:40.532Z,99115.78
2023-02-19T22:42:06.838Z,99119.09
2023-02-19T22:44:33.199Z,99109.50
2023-02-19T22:46:59.531Z,99106.34
2023-02-19T22:49:25.848Z,99106.03
2023-02-19T22:51:58.145Z,99109.34
2023-02-19T22:54:24.428Z,99110.81
2023-02-19T22:56:51.012Z,99108.53
2023-02-19T22:59:17.327Z,99113.66
2023-02-19T23:01:43.625Z,99109.19
2023-02-19T23:04:10.084Z,99106.69
2023-02-19T23:06:36.769Z,99116.50
2023-02-19T23:09:11.120Z,99112.84
2023-02-19T23:11:39.137Z,99119.31
2023-02-19T23:14:06.759Z,99114.16
2023-02-19T23:16:33.608Z,99116.19
2023-02-19T23:18:59.919Z,99117.00
2023-02-19T23:21:26.209Z,99117.16
2023-02-19T23:23:52.526Z,99108.69
2023-02-19T23:26:19.161Z,99111.19
2023-02-19T23:28:45.820Z,99106.84
2023-02-19T23:31:13.141Z,99100.72
2023-02-19T23:33:39.532Z,99100.56
2023-02-19T23:36:06.261Z,99105.78
2023-02-19T23:38:32.734Z,99096.53
2023-02-19T23:40:59.492Z,99084.44
2023-02-19T23:43:25.861Z,99083.91
2023-02-19T23:45:52.268Z,99083.75
2023-02-19T23:48:18.572Z,99087.97
2023-02-19T23:50:44.984Z,99089.31
2023-02-19T23:53:11.366Z,99099.78
2023-02-19T23:55:37.643Z,99095.38
2023-02-19T23:58:04.042Z,99100.56
